sensor_id;sensor_type;location;lat;lon;timestamp;temperature;humidity
19538;DHT22;9914;51.008;4.300;2024-01-16T00:00:12;3.30;99.90
19538;DHT22;9914;51.008;4.300;2024-01-16T00:02:37;3.20;99.90
19538;DHT22;9914;51.008;4.300;2024-01-16T00:05:03;3.20;99.90
19538;DHT22;9914;51.008;4.300;2024-01-16T00:07:29;3.20;99.90
19538;DHT22;9914;51.008;4.300;2024-01-16T00:09:55;3.10;99.90
19538;DHT22;9914;51.008;4.300;2024-01-16T00:12:20;3.20;99.90
19538;DHT22;9914;51.008;4.300;2024-01-16T00:14:46;3.20;99.90
19538;DHT22;9914;51.008;4.300;2024-01-16T00:17:12;3.20;99.90
19538;DHT22;9914;51.008;4.300;2024-01-16T00:19:37;3.20;99.90
19538;DHT22;9914;51.008;4.300;2024-01-16T00:22:03;3.20;99.90
19538;DHT22;9914;51.008;4.300;2024-01-16T00:24:30;3.00;99.90
19538;DHT22;9914;51.008;4.300;2024-01-16T00:26:56;3.20;99.90
19538;DHT22;9914;51.008;4.300;2024-01-16T00:29:22;3.30;99.90
19538;DHT22;9914;51.008;4.300;2024-01-16T00:31:47;3.30;99.90
19538;DHT22;9914;51.008;4.300;2024-01-16T00:34:13;3.30;99.90
19538;DHT22;9914;51.008;4.300;2024-01-16T00:36:39;3.40;99.90
19538;DHT22;9914;51.008;4.300;2024-01-16T00:39:04;3.30;99.90
19538;DHT22;9914;51.008;4.300;2024-01-16T00:41:30;3.30;99.90
19538;DHT22;9914;51.008;4.300;2024-01-16T00:43:56;3.30;99.90
19538;DHT22;9914;51.008;4.300;2024-01-16T00:46:22;3.40;99.90
19538;DHT22;9914;51.008;4.300;2024-01-16T00:48:47;3.40;99.90
19538;DHT22;9914;51.008;4.300;2024-01-16T00:51:13;3.40;99.90
19538;DHT22;9914;51.008;4.300;2024-01-16T00:53:43;3.20;99.90
19538;DHT22;9914;51.008;4.300;2024-01-16T00:56:09;3.10;99.90
19538;DHT22;9914;51.008;4.300;2024-01-16T00:58:35;3.10;99.90
19538;DHT22;9914;51.008;4.300;2024-01-16T01:01:01;3.00;99.90
19538;DHT22;9914;51.008;4.300;2024-01-16T01:03:26;2.90;99.90
19538;DHT22;9914;51.008;4.300;2024-01-16T01:05:52;2.80;99.90
19538;DHT22;9914;51.008;4.300;2024-01-16T01:08:18;2.70;99.90
19538;DHT22;9914;51.008;4.300;2024-01-16T01:10:44;2.70;99.90
19538;DHT22;9914;51.008;4.300;2024-01-16T01:13:09;2.70;99.90
19538;DHT22;9914;51.008;4.300;2024-01-16T01:15:35;2.60;99.90
19538;DHT22;9914;51.008;4.300;2024-01-16T01:18:01;2.60;99.90
19538;DHT22;9914;51.008;4.300;2024-01-16T01:20:26;2.60;99.90
19538;DHT22;9914;51.008;4.300;2024-01-16T01:22:52;2.60;99.90
19538;DHT22;9914;51.008;4.300;2024-01-16T01:25:17;2.60;99.90
19538;DHT22;9914;51.008;4.300;2024-01-16T01:27:43;2.60;99.90
19538;DHT22;9914;51.008;4.300;2024-01-16T01:30:09;2.60;99.90
19538;DHT22;9914;51.008;4.300;2024-01-16T01:32:36;2.60;99.90
19538;DHT22;9914;51.008;4.300;2024-01-16T01:35:02;2.50;99.90
19538;DHT22;9914;51.008;4.300;2024-01-16T01:37:28;2.40;99.90
19538;DHT22;9914;51.008;4.300;2024-01-16T01:39:53;2.40;99.90
19538;DHT22;9914;51.008;4.300;2024-01-16T01:42:19;2.40;99.90
19538;DHT22;9914;51.008;4.300;2024-01-16T01:44:45;2.40;99.90
19538;DHT22;9914;51.008;4.300;2024-01-16T01:47:10;2.40;99.90
19538;DHT22;9914;51.008;4.300;2024-01-16T01:49:36;2.40;99.90
19538;DHT22;9914;51.008;4.300;2024-01-16T01:52:03;2.30;99.90
19538;DHT22;9914;51.008;4.300;2024-01-16T01:54:31;2.30;99.90
19538;DHT22;9914;51.008;4.300;2024-01-16T01:56:57;2.30;99.90
19538;DHT22;9914;51.008;4.300;2024-01-16T01:59:23;2.30;99.90
19538;DHT22;9914;51.008;4.300;2024-01-16T02:01:50;2.20;99.90
19538;DHT22;9914;51.008;4.300;2024-01-16T02:04:19;2.20;99.90
19538;DHT22;9914;51.008;4.300;2024-01-16T02:06:45;2.10;99.90
19538;DHT22;9914;51.008;4.300;2024-01-16T02:09:12;2.10;99.90
19538;DHT22;9914;51.008;4.300;2024-01-16T02:11:39;2.00;99.90
19538;DHT22;9914;51.008;4.300;2024-01-16T02:14:05;2.00;99.90
19538;DHT22;9914;51.008;4.300;2024-01-16T02:16:36;2.00;99.90
19538;DHT22;9914;51.008;4.300;2024-01-16T02:19:03;2.00;99.90
19538;DHT22;9914;51.008;4.300;2024-01-16T02:21:39;2.10;99.90
19538;DHT22;9914;51.008;4.300;2024-01-16T02:24:08;2.10;99.90
19538;DHT22;9914;51.008;4.300;2024-01-16T02:26:35;2.10;99.90
19538;DHT22;9914;51.008;4.300;2024-01-16T02:29:01;2.10;99.90
19538;DHT22;9914;51.008;4.300;2024-01-16T02:31:31;2.00;99.90
19538;DHT22;9914;51.008;4.300;2024-01-16T02:33:57;2.00;99.90
19538;DHT22;9914;51.008;4.300;2024-01-16T02:36:24;1.90;99.90
19538;DHT22;9914;51.008;4.300;2024-01-16T02:38:49;1.90;99.90
19538;DHT22;9914;51.008;4.300;2024-01-16T02:41:15;2.10;99.90
19538;DHT22;9914;51.008;4.300;2024-01-16T02:43:42;2.00;99.90
19538;DHT22;9914;51.008;4.300;2024-01-16T02:46:07;1.90;99.90
19538;DHT22;9914;51.008;4.300;2024-01-16T02:48:34;2.00;99.90
19538;DHT22;9914;51.008;4.300;2024-01-16T02:51:01;2.00;99.90
19538;DHT22;9914;51.008;4.300;2024-01-16T02:53:26;2.00;99.90
19538;DHT22;9914;51.008;4.300;2024-01-16T02:55:54;2.00;99.90
19538;DHT22;9914;51.008;4.300;2024-01-16T02:58:20;1.90;99.90
19538;DHT22;9914;51.008;4.300;2024-01-16T03:00:46;1.90;99.90
19538;DHT22;9914;51.008;4.300;2024-01-16T03:03:12;1.90;99.90
19538;DHT22;9914;51.008;4.300;2024-01-16T03:05:40;2.00;99.90
19538;DHT22;9914;51.008;4.300;2024-01-16T03:08:06;2.00;99.90
19538;DHT22;9914;51.008;4.300;2024-01-16T03:10:32;1.90;99.90
19538;DHT22;9914;51.008;4.300;2024-01-16T03:12:57;1.80;99.90
19538;DHT22;9914;51.008;4.300;2024-01-16T03:15:23;1.90;99.90
19538;DHT22;9914;51.008;4.300;2024-01-16T03:17:49;1.90;99.90
19538;DHT22;9914;51.008;4.300;2024-01-16T03:20:15;1.90;99.90
19538;DHT22;9914;51.008;4.300;2024-01-16T03:22:41;1.90;99.90
19538;DHT22;9914;51.008;4.300;2024-01-16T03:25:08;1.90;99.90
19538;DHT22;9914;51.008;4.300;2024-01-16T03:27:34;1.80;99.90
19538;DHT22;9914;51.008;4.300;2024-01-16T03:30:01;1.80;99.90
19538;DHT22;9914;51.008;4.300;2024-01-16T03:32:27;1.90;99.90
19538;DHT22;9914;51.008;4.300;2024-01-16T03:34:52;1.90;99.90
19538;DHT22;9914;51.008;4.300;2024-01-16T03:37:18;2.00;99.90
19538;DHT22;9914;51.008;4.300;2024-01-16T03:39:44;2.00;99.90
19538;DHT22;9914;51.008;4.300;2024-01-16T03:42:10;2.10;99.90
19538;DHT22;9914;51.008;4.300;2024-01-16T03:44:41;2.00;99.90
19538;DHT22;9914;51.008;4.300;2024-01-16T03:47:07;2.00;99.90
19538;DHT22;9914;51.008;4.300;2024-01-16T03:49:33;1.90;99.90
19538;DHT22;9914;51.008;4.300;2024-01-16T03:51:58;1.90;99.90
19538;DHT22;9914;51.008;4.300;2024-01-16T03:54:24;1.90;99.90
19538;DHT22;9914;51.008;4.300;2024-01-16T03:56:51;1.90;99.90
19538;DHT22;9914;51.008;4.300;2024-01-16T03:59:16;1.90;99.90
19538;DHT22;9914;51.008;4.300;2024-01-16T04:01:42;2.00;99.90
19538;DHT22;9914;51.008;4.300;2024-01-16T04:04:10;2.00;99.90
19538;DHT22;9914;51.008;4.300;2024-01-16T04:06:36;1.90;99.90
19538;DHT22;9914;51.008;4.300;2024-01-16T04:09:02;1.90;99.90
19538;DHT22;9914;51.008;4.300;2024-01-16T04:11:29;1.90;99.90
19538;DHT22;9914;51.008;4.300;2024-01-16T04:13:54;1.90;99.90
19538;DHT22;9914;51.008;4.300;2024-01-16T04:16:20;1.90;99.90
19538;DHT22;9914;51.008;4.300;2024-01-16T04:18:46;1.90;99.90
19538;DHT22;9914;51.008;4.300;2024-01-16T04:21:12;1.90;99.90
19538;DHT22;9914;51.008;4.300;2024-01-16T04:23:37;1.80;99.90
19538;DHT22;9914;51.008;4.300;2024-01-16T04:26:03;1.80;99.90
19538;DHT22;9914;51.008;4.300;2024-01-16T04:28:29;1.70;99.90
19538;DHT22;9914;51.008;4.300;2024-01-16T04:30:54;1.70;99.90
19538;DHT22;9914;51.008;4.300;2024-01-16T04:33:20;1.60;99.90
19538;DHT22;9914;51.008;4.300;2024-01-16T04:35:46;1.60;99.90
19538;DHT22;9914;51.008;4.300;2024-01-16T04:38:12;1.60;99.90
19538;DHT22;9914;51.008;4.300;2024-01-16T04:40:38;1.60;99.90
19538;DHT22;9914;51.008;4.300;2024-01-16T04:43:03;1.60;99.90
19538;DHT22;9914;51.008;4.300;2024-01-16T04:45:29;1.40;99.90
19538;DHT22;9914;51.008;4.300;2024-01-16T04:47:54;1.50;99.90
19538;DHT22;9914;51.008;4.300;2024-01-16T04:50:20;1.50;99.90
19538;DHT22;9914;51.008;4.300;2024-01-16T04:52:46;1.50;99.90
19538;DHT22;9914;51.008;4.300;2024-01-16T04:55:11;1.40;99.90
19538;DHT22;9914;51.008;4.300;2024-01-16T04:57:37;1.50;99.90
19538;DHT22;9914;51.008;4.300;2024-01-16T05:00:03;1.40;99.90
19538;DHT22;9914;51.008;4.300;2024-01-16T05:02:35;1.50;99.90
19538;DHT22;9914;51.008;4.300;2024-01-16T05:05:01;1.50;99.90
19538;DHT22;9914;51.008;4.300;2024-01-16T05:07:26;1.40;99.90
19538;DHT22;9914;51.008;4.300;2024-01-16T05:09:52;1.40;99.90
19538;DHT22;9914;51.008;4.300;2024-01-16T05:12:19;1.40;99.90
19538;DHT22;9914;51.008;4.300;2024-01-16T05:14:44;1.30;99.90
19538;DHT22;9914;51.008;4.300;2024-01-16T05:17:10;1.30;99.90
19538;DHT22;9914;51.008;4.300;2024-01-16T05:19:36;1.30;99.90
19538;DHT22;9914;51.008;4.300;2024-01-16T05:22:02;1.30;99.90
19538;DHT22;9914;51.008;4.300;2024-01-16T05:24:28;1.20;99.90
19538;DHT22;9914;51.008;4.300;2024-01-16T05:26:54;1.30;99.90
19538;DHT22;9914;51.008;4.300;2024-01-16T05:29:19;1.30;99.90
19538;DHT22;9914;51.008;4.300;2024-01-16T05:31:45;1.30;99.90
19538;DHT22;9914;51.008;4.300;2024-01-16T05:34:11;1.40;99.90
19538;DHT22;9914;51.008;4.300;2024-01-16T05:36:37;1.30;99.90
19538;DHT22;9914;51.008;4.300;2024-01-16T05:39:03;1.30;99.90
19538;DHT22;9914;51.008;4.300;2024-01-16T05:41:35;1.40;99.90
19538;DHT22;9914;51.008;4.300;2024-01-16T05:44:01;1.40;99.90
19538;DHT22;9914;51.008;4.300;2024-01-16T05:46:30;1.40;99.90
19538;DHT22;9914;51.008;4.300;2024-01-16T05:48:56;1.30;99.90
19538;DHT22;9914;51.008;4.300;2024-01-16T05:51:22;1.30;99.90
19538;DHT22;9914;51.008;4.300;2024-01-16T05:53:47;1.20;99.90
19538;DHT22;9914;51.008;4.300;2024-01-16T05:56:13;1.20;99.90
19538;DHT22;9914;51.008;4.300;2024-01-16T05:58:39;1.20;99.90
19538;DHT22;9914;51.008;4.300;2024-01-16T06:01:05;1.20;99.90
19538;DHT22;9914;51.008;4.300;2024-01-16T06:03:31;1.20;99.90
19538;DHT22;9914;51.008;4.300;2024-01-16T06:05:57;1.00;99.90
19538;DHT22;9914;51.008;4.300;2024-01-16T06:08:23;1.00;99.90
19538;DHT22;9914;51.008;4.300;2024-01-16T06:10:48;1.00;99.90
19538;DHT22;9914;51.008;4.300;2024-01-16T06:13:14;1.00;99.90
19538;DHT22;9914;51.008;4.300;2024-01-16T06:15:40;1.00;99.90
19538;DHT22;9914;51.008;4.300;2024-01-16T06:18:05;1.00;99.90
19538;DHT22;9914;51.008;4.300;2024-01-16T06:20:31;1.00;99.90
19538;DHT22;9914;51.008;4.300;2024-01-16T06:22:58;1.00;99.90
19538;DHT22;9914;51.008;4.300;2024-01-16T06:25:23;1.00;99.90
19538;DHT22;9914;51.008;4.300;2024-01-16T06:27:49;1.00;99.90
19538;DHT22;9914;51.008;4.300;2024-01-16T06:30:15;1.00;99.90
19538;DHT22;9914;51.008;4.300;2024-01-16T06:32:40;1.00;99.90
19538;DHT22;9914;51.008;4.300;2024-01-16T06:35:06;1.10;99.90
19538;DHT22;9914;51.008;4.300;2024-01-16T06:37:33;1.20;99.90
19538;DHT22;9914;51.008;4.300;2024-01-16T06:39:58;1.30;99.90
19538;DHT22;9914;51.008;4.300;2024-01-16T06:42:24;1.20;99.90
19538;DHT22;9914;51.008;4.300;2024-01-16T06:44:50;1.20;99.90
19538;DHT22;9914;51.008;4.300;2024-01-16T06:47:16;1.20;99.90
19538;DHT22;9914;51.008;4.300;2024-01-16T06:49:41;1.20;99.90
19538;DHT22;9914;51.008;4.300;2024-01-16T06:52:08;1.30;99.90
19538;DHT22;9914;51.008;4.300;2024-01-16T06:54:34;1.30;99.90
19538;DHT22;9914;51.008;4.300;2024-01-16T06:57:00;1.40;99.90
19538;DHT22;9914;51.008;4.300;2024-01-16T06:59:25;1.40;99.90
19538;DHT22;9914;51.008;4.300;2024-01-16T07:01:51;1.40;99.90
19538;DHT22;9914;51.008;4.300;2024-01-16T07:04:17;1.30;99.90
19538;DHT22;9914;51.008;4.300;2024-01-16T07:06:43;1.40;99.90
19538;DHT22;9914;51.008;4.300;2024-01-16T07:09:09;1.50;99.90
19538;DHT22;9914;51.008;4.300;2024-01-16T07:11:38;1.40;99.90
19538;DHT22;9914;51.008;4.300;2024-01-16T07:14:09;1.50;99.90
19538;DHT22;9914;51.008;4.300;2024-01-16T07:16:34;1.50;99.90
19538;DHT22;9914;51.008;4.300;2024-01-16T07:19:01;1.40;99.90
19538;DHT22;9914;51.008;4.300;2024-01-16T07:21:27;1.40;99.90
19538;DHT22;9914;51.008;4.300;2024-01-16T07:23:54;1.40;99.90
19538;DHT22;9914;51.008;4.300;2024-01-16T07:26:20;1.40;99.90
19538;DHT22;9914;51.008;4.300;2024-01-16T07:28:45;1.40;99.90
19538;DHT22;9914;51.008;4.300;2024-01-16T07:31:13;1.40;99.90
19538;DHT22;9914;51.008;4.300;2024-01-16T07:33:39;1.40;99.90
19538;DHT22;9914;51.008;4.300;2024-01-16T07:36:06;1.50;99.90
19538;DHT22;9914;51.008;4.300;2024-01-16T07:38:31;1.50;99.90
19538;DHT22;9914;51.008;4.300;2024-01-16T07:40:58;1.60;99.90
19538;DHT22;9914;51.008;4.300;2024-01-16T07:43:26;1.70;99.90
19538;DHT22;9914;51.008;4.300;2024-01-16T07:45:52;1.70;99.90
19538;DHT22;9914;51.008;4.300;2024-01-16T07:48:17;1.60;99.90
19538;DHT22;9914;51.008;4.300;2024-01-16T07:50:43;1.60;99.90
19538;DHT22;9914;51.008;4.300;2024-01-16T07:53:11;1.70;99.90
19538;DHT22;9914;51.008;4.300;2024-01-16T07:55:37;1.70;99.90
19538;DHT22;9914;51.008;4.300;2024-01-16T07:58:04;1.70;99.90
19538;DHT22;9914;51.008;4.300;2024-01-16T08:00:30;1.70;99.90
19538;DHT22;9914;51.008;4.300;2024-01-16T08:02:56;1.80;99.90
19538;DHT22;9914;51.008;4.300;2024-01-16T08:05:21;1.80;99.90
19538;DHT22;9914;51.008;4.300;2024-01-16T08:07:51;1.80;99.90
19538;DHT22;9914;51.008;4.300;2024-01-16T08:10:17;1.80;99.90
19538;DHT22;9914;51.008;4.300;2024-01-16T08:12:42;1.80;99.90
19538;DHT22;9914;51.008;4.300;2024-01-16T08:15:09;1.70;99.90
19538;DHT22;9914;51.008;4.300;2024-01-16T08:17:35;1.70;99.90
19538;DHT22;9914;51.008;4.300;2024-01-16T08:20:00;1.70;99.90
19538;DHT22;9914;51.008;4.300;2024-01-16T08:22:26;1.80;99.90
19538;DHT22;9914;51.008;4.300;2024-01-16T08:24:52;1.70;99.90
19538;DHT22;9914;51.008;4.300;2024-01-16T08:27:18;1.70;99.90
19538;DHT22;9914;51.008;4.300;2024-01-16T08:29:44;1.70;99.90
19538;DHT22;9914;51.008;4.300;2024-01-16T08:32:10;1.90;99.90
19538;DHT22;9914;51.008;4.300;2024-01-16T08:34:36;1.80;99.90
19538;DHT22;9914;51.008;4.300;2024-01-16T08:37:01;1.90;99.90
19538;DHT22;9914;51.008;4.300;2024-01-16T08:39:27;1.90;99.90
19538;DHT22;9914;51.008;4.300;2024-01-16T08:41:54;1.90;99.90
19538;DHT22;9914;51.008;4.300;2024-01-16T08:44:20;2.00;99.90
19538;DHT22;9914;51.008;4.300;2024-01-16T08:46:46;2.00;99.90
19538;DHT22;9914;51.008;4.300;2024-01-16T08:49:11;2.00;99.90
19538;DHT22;9914;51.008;4.300;2024-01-16T08:51:39;2.00;99.90
19538;DHT22;9914;51.008;4.300;2024-01-16T08:54:06;2.00;99.90
19538;DHT22;9914;51.008;4.300;2024-01-16T08:56:32;1.90;99.90
19538;DHT22;9914;51.008;4.300;2024-01-16T08:58:58;1.90;99.90
19538;DHT22;9914;51.008;4.300;2024-01-16T09:01:23;1.80;99.90
19538;DHT22;9914;51.008;4.300;2024-01-16T09:03:49;1.80;99.90
19538;DHT22;9914;51.008;4.300;2024-01-16T09:06:15;1.90;99.90
19538;DHT22;9914;51.008;4.300;2024-01-16T09:08:40;1.90;99.90
19538;DHT22;9914;51.008;4.300;2024-01-16T09:11:06;1.90;99.90
19538;DHT22;9914;51.008;4.300;2024-01-16T09:13:32;2.00;99.90
19538;DHT22;9914;51.008;4.300;2024-01-16T09:15:57;2.00;99.90
19538;DHT22;9914;51.008;4.300;2024-01-16T09:18:23;2.10;99.90
19538;DHT22;9914;51.008;4.300;2024-01-16T09:20:48;2.00;99.90
19538;DHT22;9914;51.008;4.300;2024-01-16T09:23:14;2.10;99.90
19538;DHT22;9914;51.008;4.300;2024-01-16T09:25:40;2.20;99.90
19538;DHT22;9914;51.008;4.300;2024-01-16T09:28:06;2.20;99.90
19538;DHT22;9914;51.008;4.300;2024-01-16T09:30:32;2.30;99.90
19538;DHT22;9914;51.008;4.300;2024-01-16T09:32:58;2.20;99.90
19538;DHT22;9914;51.008;4.300;2024-01-16T09:35:24;2.30;99.90
19538;DHT22;9914;51.008;4.300;2024-01-16T09:37:50;2.40;99.90
19538;DHT22;9914;51.008;4.300;2024-01-16T09:40:16;2.40;99.90
19538;DHT22;9914;51.008;4.300;2024-01-16T09:42:42;2.40;99.90
19538;DHT22;9914;51.008;4.300;2024-01-16T09:45:09;2.30;99.90
19538;DHT22;9914;51.008;4.300;2024-01-16T09:47:35;2.30;99.90
19538;DHT22;9914;51.008;4.300;2024-01-16T09:50:03;2.30;99.90
19538;DHT22;9914;51.008;4.300;2024-01-16T09:52:29;2.30;99.90
19538;DHT22;9914;51.008;4.300;2024-01-16T09:54:55;2.40;99.90
19538;DHT22;9914;51.008;4.300;2024-01-16T09:57:24;2.30;99.90
19538;DHT22;9914;51.008;4.300;2024-01-16T09:59:51;2.30;99.90
19538;DHT22;9914;51.008;4.300;2024-01-16T10:02:19;2.20;99.90
19538;DHT22;9914;51.008;4.300;2024-01-16T10:04:46;2.20;99.90
19538;DHT22;9914;51.008;4.300;2024-01-16T10:07:12;2.20;99.90
19538;DHT22;9914;51.008;4.300;2024-01-16T10:09:39;2.30;99.90
19538;DHT22;9914;51.008;4.300;2024-01-16T10:12:06;2.30;99.90
19538;DHT22;9914;51.008;4.300;2024-01-16T10:14:33;2.30;99.90
19538;DHT22;9914;51.008;4.300;2024-01-16T10:16:59;2.20;99.90
19538;DHT22;9914;51.008;4.300;2024-01-16T10:19:28;2.20;99.90
19538;DHT22;9914;51.008;4.300;2024-01-16T10:22:04;2.30;99.90
19538;DHT22;9914;51.008;4.300;2024-01-16T10:24:31;2.20;99.90
19538;DHT22;9914;51.008;4.300;2024-01-16T10:27:00;2.30;99.90
19538;DHT22;9914;51.008;4.300;2024-01-16T10:29:26;2.40;99.90
19538;DHT22;9914;51.008;4.300;2024-01-16T10:31:52;2.40;99.90
19538;DHT22;9914;51.008;4.300;2024-01-16T10:34:22;2.50;99.90
19538;DHT22;9914;51.008;4.300;2024-01-16T10:36:50;2.60;99.90
19538;DHT22;9914;51.008;4.300;2024-01-16T10:39:16;2.60;99.90
19538;DHT22;9914;51.008;4.300;2024-01-16T10:41:42;2.60;99.90
19538;DHT22;9914;51.008;4.300;2024-01-16T10:44:08;2.70;99.90
19538;DHT22;9914;51.008;4.300;2024-01-16T10:46:34;2.70;99.90
19538;DHT22;9914;51.008;4.300;2024-01-16T10:49:01;2.70;99.90
19538;DHT22;9914;51.008;4.300;2024-01-16T10:51:28;2.80;99.90
19538;DHT22;9914;51.008;4.300;2024-01-16T10:54:00;2.70;99.90
19538;DHT22;9914;51.008;4.300;2024-01-16T10:56:29;2.80;99.90
19538;DHT22;9914;51.008;4.300;2024-01-16T10:59:06;2.70;99.90
19538;DHT22;9914;51.008;4.300;2024-01-16T11:01:34;2.70;99.90
19538;DHT22;9914;51.008;4.300;2024-01-16T11:04:01;2.80;99.90
19538;DHT22;9914;51.008;4.300;2024-01-16T11:06:27;2.90;99.90
19538;DHT22;9914;51.008;4.300;2024-01-16T11:08:54;2.90;99.90
19538;DHT22;9914;51.008;4.300;2024-01-16T11:11:22;3.00;99.90
19538;DHT22;9914;51.008;4.300;2024-01-16T11:13:49;3.10;99.90
19538;DHT22;9914;51.008;4.300;2024-01-16T11:16:15;3.10;99.90
19538;DHT22;9914;51.008;4.300;2024-01-16T11:18:41;3.10;99.90
19538;DHT22;9914;51.008;4.300;2024-01-16T11:21:09;3.10;99.90
19538;DHT22;9914;51.008;4.300;2024-01-16T11:23:37;3.20;99.90
19538;DHT22;9914;51.008;4.300;2024-01-16T11:26:37;3.30;99.90
19538;DHT22;9914;51.008;4.300;2024-01-16T11:31:52;3.60;99.90
19538;DHT22;9914;51.008;4.300;2024-01-16T11:37:07;3.70;99.90
19538;DHT22;9914;51.008;4.300;2024-01-16T11:39:34;3.70;99.90
19538;DHT22;9914;51.008;4.300;2024-01-16T11:42:00;3.70;99.90
19538;DHT22;9914;51.008;4.300;2024-01-16T11:44:45;3.70;99.90
19538;DHT22;9914;51.008;4.300;2024-01-16T11:47:22;3.70;99.90
19538;DHT22;9914;51.008;4.300;2024-01-16T11:50:07;3.80;99.90
19538;DHT22;9914;51.008;4.300;2024-01-16T11:52:44;3.80;99.90
19538;DHT22;9914;51.008;4.300;2024-01-16T12:00:45;4.00;99.90
19538;DHT22;9914;51.008;4.300;2024-01-16T12:03:14;4.00;99.90
19538;DHT22;9914;51.008;4.300;2024-01-16T12:05:42;3.90;99.90
19538;DHT22;9914;51.008;4.300;2024-01-16T12:08:09;4.00;99.90
19538;DHT22;9914;51.008;4.300;2024-01-16T12:10:46;4.10;99.90
19538;DHT22;9914;51.008;4.300;2024-01-16T12:13:13;4.20;99.90
19538;DHT22;9914;51.008;4.300;2024-01-16T12:15:38;4.30;99.90
19538;DHT22;9914;51.008;4.300;2024-01-16T12:18:04;4.30;99.90
19538;DHT22;9914;51.008;4.300;2024-01-16T12:20:31;4.30;99.90
19538;DHT22;9914;51.008;4.300;2024-01-16T12:22:58;4.20;99.90
19538;DHT22;9914;51.008;4.300;2024-01-16T12:25:27;4.10;99.90
19538;DHT22;9914;51.008;4.300;2024-01-16T12:28:00;4.10;99.90
19538;DHT22;9914;51.008;4.300;2024-01-16T12:30:34;4.20;99.90
19538;DHT22;9914;51.008;4.300;2024-01-16T12:33:04;4.20;99.90
19538;DHT22;9914;51.008;4.300;2024-01-16T12:35:37;4.20;99.90
19538;DHT22;9914;51.008;4.300;2024-01-16T12:38:07;4.40;99.90
19538;DHT22;9914;51.008;4.300;2024-01-16T12:40:42;4.40;99.90
19538;DHT22;9914;51.008;4.300;2024-01-16T12:43:09;4.50;99.90
19538;DHT22;9914;51.008;4.300;2024-01-16T12:45:35;4.50;99.90
19538;DHT22;9914;51.008;4.300;2024-01-16T12:48:01;4.40;99.90
19538;DHT22;9914;51.008;4.300;2024-01-16T12:50:30;4.30;99.90
19538;DHT22;9914;51.008;4.300;2024-01-16T12:53:08;4.30;99.90
19538;DHT22;9914;51.008;4.300;2024-01-16T12:55:35;4.40;99.90
19538;DHT22;9914;51.008;4.300;2024-01-16T12:58:21;4.40;99.90
19538;DHT22;9914;51.008;4.300;2024-01-16T13:00:51;4.40;99.90
19538;DHT22;9914;51.008;4.300;2024-01-16T13:03:20;4.50;99.90
19538;DHT22;9914;51.008;4.300;2024-01-16T13:05:56;4.50;99.90
19538;DHT22;9914;51.008;4.300;2024-01-16T13:08:22;4.50;99.90
19538;DHT22;9914;51.008;4.300;2024-01-16T13:11:06;4.40;99.90
19538;DHT22;9914;51.008;4.300;2024-01-16T13:13:33;4.50;99.90
19538;DHT22;9914;51.008;4.300;2024-01-16T13:16:00;4.60;99.90
19538;DHT22;9914;51.008;4.300;2024-01-16T13:18:28;4.60;99.90
19538;DHT22;9914;51.008;4.300;2024-01-16T13:20:55;4.60;99.90
19538;DHT22;9914;51.008;4.300;2024-01-16T13:23:22;4.60;99.90
19538;DHT22;9914;51.008;4.300;2024-01-16T13:25:48;4.70;99.90
19538;DHT22;9914;51.008;4.300;2024-01-16T13:28:16;4.70;99.90
19538;DHT22;9914;51.008;4.300;2024-01-16T13:30:43;4.80;99.90
19538;DHT22;9914;51.008;4.300;2024-01-16T13:33:09;4.80;99.90
19538;DHT22;9914;51.008;4.300;2024-01-16T13:35:38;4.80;99.90
19538;DHT22;9914;51.008;4.300;2024-01-16T13:38:05;4.80;99.90
19538;DHT22;9914;51.008;4.300;2024-01-16T13:40:31;4.80;99.90
19538;DHT22;9914;51.008;4.300;2024-01-16T13:42:57;4.80;99.90
19538;DHT22;9914;51.008;4.300;2024-01-16T13:45:23;4.70;99.90
19538;DHT22;9914;51.008;4.300;2024-01-16T13:47:49;4.80;99.90
19538;DHT22;9914;51.008;4.300;2024-01-16T13:50:14;4.80;99.90
19538;DHT22;9914;51.008;4.300;2024-01-16T13:52:40;4.80;99.90
19538;DHT22;9914;51.008;4.300;2024-01-16T13:55:07;4.90;99.90
19538;DHT22;9914;51.008;4.300;2024-01-16T13:57:33;4.90;99.90
19538;DHT22;9914;51.008;4.300;2024-01-16T14:00:06;4.90;99.90
19538;DHT22;9914;51.008;4.300;2024-01-16T14:02:32;4.90;99.90
19538;DHT22;9914;51.008;4.300;2024-01-16T14:05:00;4.90;99.90
19538;DHT22;9914;51.008;4.300;2024-01-16T14:07:26;5.00;99.90
19538;DHT22;9914;51.008;4.300;2024-01-16T14:09:51;5.10;99.90
19538;DHT22;9914;51.008;4.300;2024-01-16T14:12:17;5.10;99.90
19538;DHT22;9914;51.008;4.300;2024-01-16T14:14:44;5.10;99.90
19538;DHT22;9914;51.008;4.300;2024-01-16T14:17:11;5.10;99.90
19538;DHT22;9914;51.008;4.300;2024-01-16T14:19:36;5.10;99.90
19538;DHT22;9914;51.008;4.300;2024-01-16T14:22:03;5.10;99.90
19538;DHT22;9914;51.008;4.300;2024-01-16T14:24:29;5.00;99.90
19538;DHT22;9914;51.008;4.300;2024-01-16T14:26:55;5.00;99.90
19538;DHT22;9914;51.008;4.300;2024-01-16T14:29:23;5.00;99.90
19538;DHT22;9914;51.008;4.300;2024-01-16T14:31:49;5.10;99.90
19538;DHT22;9914;51.008;4.300;2024-01-16T14:34:15;5.10;99.90
19538;DHT22;9914;51.008;4.300;2024-01-16T14:36:41;5.30;99.90
19538;DHT22;9914;51.008;4.300;2024-01-16T14:39:07;5.80;99.90
19538;DHT22;9914;51.008;4.300;2024-01-16T14:41:41;5.90;99.90
19538;DHT22;9914;51.008;4.300;2024-01-16T14:44:08;6.00;99.90
19538;DHT22;9914;51.008;4.300;2024-01-16T14:46:37;5.90;99.90
19538;DHT22;9914;51.008;4.300;2024-01-16T14:49:03;5.70;99.90
19538;DHT22;9914;51.008;4.300;2024-01-16T14:51:29;5.50;99.90
19538;DHT22;9914;51.008;4.300;2024-01-16T14:53:55;5.40;99.90
19538;DHT22;9914;51.008;4.300;2024-01-16T14:56:21;5.30;99.90
19538;DHT22;9914;51.008;4.300;2024-01-16T14:58:46;5.30;99.90
19538;DHT22;9914;51.008;4.300;2024-01-16T15:01:12;5.20;99.90
19538;DHT22;9914;51.008;4.300;2024-01-16T15:03:38;5.10;99.90
19538;DHT22;9914;51.008;4.300;2024-01-16T15:06:04;5.00;99.90
19538;DHT22;9914;51.008;4.300;2024-01-16T15:08:31;5.00;99.90
19538;DHT22;9914;51.008;4.300;2024-01-16T15:10:58;5.10;99.90
19538;DHT22;9914;51.008;4.300;2024-01-16T15:13:26;5.00;99.90
19538;DHT22;9914;51.008;4.300;2024-01-16T15:15:52;4.90;99.90
19538;DHT22;9914;51.008;4.300;2024-01-16T15:18:19;4.90;99.90
19538;DHT22;9914;51.008;4.300;2024-01-16T15:20:45;4.80;99.90
19538;DHT22;9914;51.008;4.300;2024-01-16T15:23:11;4.80;99.90
19538;DHT22;9914;51.008;4.300;2024-01-16T15:25:37;4.70;99.90
19538;DHT22;9914;51.008;4.300;2024-01-16T15:28:03;4.60;99.90
19538;DHT22;9914;51.008;4.300;2024-01-16T15:30:29;4.70;99.90
19538;DHT22;9914;51.008;4.300;2024-01-16T15:32:58;4.70;99.90
19538;DHT22;9914;51.008;4.300;2024-01-16T15:35:24;4.70;99.90
19538;DHT22;9914;51.008;4.300;2024-01-16T15:37:50;4.60;99.90
19538;DHT22;9914;51.008;4.300;2024-01-16T15:40:16;4.50;99.90
19538;DHT22;9914;51.008;4.300;2024-01-16T15:42:42;4.40;99.90
19538;DHT22;9914;51.008;4.300;2024-01-16T15:45:08;4.30;99.90
19538;DHT22;9914;51.008;4.300;2024-01-16T15:47:37;4.10;99.90
19538;DHT22;9914;51.008;4.300;2024-01-16T15:50:04;4.00;99.90
19538;DHT22;9914;51.008;4.300;2024-01-16T15:52:31;4.00;99.90
19538;DHT22;9914;51.008;4.300;2024-01-16T15:54:57;3.80;99.90
19538;DHT22;9914;51.008;4.300;2024-01-16T15:57:23;3.80;99.90
19538;DHT22;9914;51.008;4.300;2024-01-16T15:59:48;3.70;99.90
19538;DHT22;9914;51.008;4.300;2024-01-16T16:02:14;3.60;99.90
19538;DHT22;9914;51.008;4.300;2024-01-16T16:04:40;3.60;99.90
19538;DHT22;9914;51.008;4.300;2024-01-16T16:07:09;3.40;99.90
19538;DHT22;9914;51.008;4.300;2024-01-16T16:09:35;3.30;99.90